Chetumal International Airport
MMCM : now visible

Airfield :











YOU CAN JOIN US ON...

 
LOGIN :

Register | Disclaimer

   EN    FR    IT 

 









Legend :    VFR   Marginal VFR   IFR   Intensive IFR   Very Intensive IFR
Visi :
Ceiling :
>= 8 km
>= 3000ft
5 to 8 km
1000 to 3000 ft
1500m to 5 km
500 to 1000 ft
800 to 1500m
200 to 500 ft
< 800m
< 200 ft
Symbols :   Thunderstorms  Fog  Heavy snow  Heavy precipitations  Wind > 20 kt







- Airport Elevation : 39 ft
- IATA code : CTM


MMCM - Chetumal International

EXPIRED METARs :
  • 220444Z 11014KT 7SM SCT020 28/25 A2985 RMK 8/500

TAF TAF MMCM
Valid from the 22 at 06:00 until the 23 at 06:00 UTC


220512Z 2206/2306 11014KT P6SM SCT020
FM221000 12010KT P6SM BKN020
FM221800 12015KT P6SM SCT025
BECMG 2303/2305 09004KT
MMFR FIR / North America



MET'MAP, your aeronautical weather chart ! - Copyright ORBIFLY December 2007 - Disclaimer

ORBIFLY MET'MAP TEAM :

Programming & Development : Alexandra Zaïnal
Concept & Development : Baudouin d'Aumeries
Co-Development & Prog : Marc-Olivier Méhu
Technical & hardware support : Manuel Goepfert

Contact : metmap@orbifly.com




SOURCES & CREDITS :

   NOAA       Earth
Advisory